createdAt,value
2023-02-15T00:00:21.385Z,94.80
2023-02-15T00:02:48.329Z,94.83
2023-02-15T00:05:15.501Z,94.97
2023-02-15T00:07:46.967Z,94.88
2023-02-15T00:10:19.248Z,95.64
2023-02-15T00:16:08.073Z,96.58
2023-02-15T00:18:46.313Z,96.70
2023-02-15T00:21:13.223Z,96.99
2023-02-15T00:26:30.776Z,96.70
2023-02-15T00:29:04.467Z,96.54
2023-02-15T00:31:38.589Z,96.46
2023-02-15T00:34:13.186Z,96.64
2023-02-15T00:36:40.520Z,96.49
2023-02-15T00:39:07.621Z,96.56
2023-02-15T00:41:38.087Z,96.34
2023-02-15T00:44:05.880Z,96.67
2023-02-15T00:46:33.798Z,96.88
2023-02-15T00:49:01.013Z,96.60
2023-02-15T00:51:28.200Z,96.37
2023-02-15T00:53:55.614Z,96.35
2023-02-15T00:56:23.050Z,95.78
2023-02-15T00:58:51.435Z,96.21
2023-02-15T01:01:20.757Z,96.04
2023-02-15T01:03:48.490Z,96.50
2023-02-15T01:06:37.281Z,96.61
2023-02-15T01:09:11.531Z,96.64
2023-02-15T01:11:38.335Z,96.73
2023-02-15T01:15:04.157Z,96.39
2023-02-15T01:17:33.926Z,96.90
2023-02-15T01:20:30.397Z,96.90
2023-02-15T01:23:01.122Z,97.17
2023-02-15T01:25:36.663Z,96.66
2023-02-15T01:28:08.138Z,95.38
2023-02-15T01:30:39.811Z,95.17
2023-02-15T01:33:08.220Z,95.27
2023-02-15T01:35:37.761Z,95.26
2023-02-15T01:38:04.728Z,94.37
2023-02-15T01:40:31.795Z,93.43
2023-02-15T01:42:59.986Z,93.98
2023-02-15T01:45:29.893Z,93.57
2023-02-15T01:48:04.951Z,92.66
2023-02-15T01:50:37.960Z,92.41
2023-02-15T01:53:14.346Z,91.22
2023-02-15T01:55:47.807Z,93.29
2023-02-15T01:58:16.169Z,94.64
2023-02-15T02:00:45.158Z,95.69
2023-02-15T02:03:13.690Z,95.92
2023-02-15T02:05:42.182Z,96.17
2023-02-15T02:08:10.256Z,96.37
2023-02-15T02:10:37.617Z,96.43
2023-02-15T02:13:07.672Z,96.93
2023-02-15T02:15:47.563Z,97.02
2023-02-15T02:18:42.298Z,96.86
2023-02-15T02:22:08.585Z,97.44
2023-02-15T02:25:11.895Z,96.37
2023-02-15T02:27:45.101Z,96.31
2023-02-15T02:30:49.701Z,96.54
2023-02-15T02:33:43.329Z,96.13
2023-02-15T02:36:23.601Z,95.42
2023-02-15T02:39:08.803Z,93.69
2023-02-15T02:41:50.731Z,93.46
2023-02-15T02:44:26.274Z,93.51
2023-02-15T02:47:00.663Z,92.98
2023-02-15T02:49:37.417Z,93.50
2023-02-15T02:52:27.710Z,93.48
2023-02-15T02:54:59.352Z,92.93
2023-02-15T03:00:21.711Z,91.95
2023-02-15T03:02:56.267Z,92.33
2023-02-15T03:05:31.105Z,92.17
2023-02-15T03:08:05.447Z,92.99
2023-02-15T03:11:00.534Z,93.83
2023-02-15T03:13:28.651Z,95.00
2023-02-15T03:16:08.537Z,95.72
2023-02-15T03:18:46.994Z,96.58
2023-02-15T03:21:16.442Z,96.68
2023-02-15T03:23:46.269Z,96.45
2023-02-15T03:26:14.605Z,96.26
2023-02-15T03:28:50.582Z,95.98
2023-02-15T03:31:24.571Z,95.98
2023-02-15T03:33:57.841Z,96.29
2023-02-15T03:36:37.603Z,96.26
2023-02-15T03:39:14.541Z,95.83
2023-02-15T03:41:55.610Z,95.72
2023-02-15T03:44:30.494Z,96.25
2023-02-15T03:47:07.006Z,95.55
2023-02-15T03:49:42.956Z,95.00
2023-02-15T03:52:14.799Z,94.47
2023-02-15T03:54:43.172Z,94.26
2023-02-15T03:57:16.515Z,94.23
2023-02-15T04:03:30.215Z,93.18
2023-02-15T04:06:01.528Z,95.06
2023-02-15T04:08:32.860Z,94.76
2023-02-15T04:11:16.340Z,95.38
2023-02-15T04:13:44.150Z,94.82
2023-02-15T04:16:11.176Z,94.82
2023-02-15T04:18:42.285Z,94.38
2023-02-15T04:21:09.514Z,93.32
2023-02-15T04:23:37.890Z,93.77
2023-02-15T04:26:05.610Z,94.25
2023-02-15T04:28:32.535Z,94.72
2023-02-15T04:30:59.383Z,95.64
2023-02-15T04:33:26.553Z,96.60
2023-02-15T04:35:53.513Z,96.73
2023-02-15T04:38:20.396Z,96.34
2023-02-15T04:40:52.575Z,96.80
2023-02-15T04:43:19.437Z,96.44
2023-02-15T04:45:49.568Z,96.73
2023-02-15T04:48:17.028Z,96.41
2023-02-15T04:50:44.181Z,95.71
2023-02-15T04:53:12.202Z,94.08
2023-02-15T04:55:39.244Z,94.86
2023-02-15T04:58:07.986Z,95.47
2023-02-15T05:00:34.850Z,95.78
2023-02-15T05:03:02.020Z,95.26
2023-02-15T05:05:28.969Z,95.05
2023-02-15T05:07:55.819Z,95.45
2023-02-15T05:10:22.931Z,95.81
2023-02-15T05:12:50.373Z,95.70
2023-02-15T05:15:18.982Z,95.90
2023-02-15T05:17:45.837Z,94.96
2023-02-15T05:20:13.065Z,94.90
2023-02-15T05:22:39.910Z,94.18
2023-02-15T05:25:07.304Z,94.30
2023-02-15T05:27:34.288Z,94.15
2023-02-15T05:30:01.309Z,94.67
2023-02-15T05:32:30.132Z,94.72
2023-02-15T05:34:57.099Z,94.65
2023-02-15T05:37:24.073Z,94.05
2023-02-15T05:39:50.945Z,94.11
2023-02-15T05:42:17.758Z,95.04
2023-02-15T05:44:44.626Z,95.04
2023-02-15T05:47:11.668Z,96.13
2023-02-15T05:49:39.948Z,95.72
2023-02-15T05:52:06.944Z,96.41
2023-02-15T05:54:33.755Z,95.98
2023-02-15T05:57:00.758Z,95.79
2023-02-15T05:59:27.698Z,96.07
2023-02-15T06:01:55.226Z,95.02
2023-02-15T06:04:22.308Z,95.56
2023-02-15T06:06:50.548Z,96.23
2023-02-15T06:09:17.775Z,95.51
2023-02-15T06:11:44.986Z,95.75
2023-02-15T06:14:12.261Z,96.20
2023-02-15T06:16:39.359Z,95.70
2023-02-15T06:19:06.256Z,95.90
2023-02-15T06:21:33.382Z,96.30
2023-02-15T06:24:01.876Z,96.25
2023-02-15T06:26:29.002Z,96.28
2023-02-15T06:28:55.773Z,95.19
2023-02-15T06:31:23.048Z,95.06
2023-02-15T06:34:48.868Z,94.28
2023-02-15T06:37:15.899Z,93.98
2023-02-15T06:39:44.170Z,94.00
2023-02-15T06:42:18.364Z,93.39
2023-02-15T06:44:46.671Z,92.45
2023-02-15T06:47:13.680Z,92.43
2023-02-15T06:49:40.868Z,91.22
2023-02-15T06:52:22.225Z,91.38
2023-02-15T06:54:53.775Z,92.20
2023-02-15T06:57:29.829Z,92.83
2023-02-15T06:59:56.981Z,92.99
2023-02-15T07:02:24.156Z,93.22
2023-02-15T07:04:51.015Z,93.02
2023-02-15T07:07:18.887Z,92.68
2023-02-15T07:09:47.464Z,92.62
2023-02-15T07:12:16.750Z,92.36
2023-02-15T07:14:43.496Z,93.25
2023-02-15T07:17:32.649Z,96.03
2023-02-15T07:19:57.110Z,96.13
2023-02-15T07:22:25.508Z,94.10
2023-02-15T07:24:52.344Z,91.63
2023-02-15T07:27:20.707Z,90.13
2023-02-15T07:29:47.661Z,90.56
2023-02-15T07:32:15.288Z,92.14
2023-02-15T07:34:42.146Z,93.49
2023-02-15T07:37:09.025Z,93.98
2023-02-15T07:39:36.101Z,94.13
2023-02-15T07:42:03.422Z,93.93
2023-02-15T07:44:32.937Z,93.49
2023-02-15T07:47:08.050Z,93.21
2023-02-15T07:49:35.376Z,93.46
2023-02-15T07:52:05.154Z,93.32
2023-02-15T07:54:34.390Z,92.65
2023-02-15T07:57:02.646Z,92.92
2023-02-15T07:59:29.641Z,93.00
2023-02-15T08:01:57.972Z,93.51
2023-02-15T08:04:25.684Z,93.72
2023-02-15T08:06:54.500Z,92.90
2023-02-15T08:09:24.369Z,93.33
2023-02-15T08:11:51.241Z,93.50
2023-02-15T08:14:22.594Z,93.49
2023-02-15T08:16:51.884Z,93.62
2023-02-15T08:19:23.626Z,91.78
2023-02-15T08:21:53.377Z,91.63
2023-02-15T08:24:23.687Z,92.36
2023-02-15T08:26:51.861Z,92.42
2023-02-15T08:29:22.573Z,92.25
2023-02-15T08:31:53.392Z,92.31
2023-02-15T08:34:21.966Z,92.79
2023-02-15T08:36:48.895Z,92.59
2023-02-15T08:43:09.421Z,93.11
2023-02-15T08:45:39.754Z,92.80
2023-02-15T08:48:08.199Z,92.71
2023-02-15T08:50:39.104Z,92.30
2023-02-15T08:53:10.237Z,92.45
2023-02-15T08:56:28.439Z,92.80
2023-02-15T08:59:47.111Z,92.84
2023-02-15T09:02:17.080Z,92.65
2023-02-15T09:10:28.945Z,92.94
2023-02-15T09:18:16.886Z,93.04
2023-02-15T09:20:46.686Z,92.97
2023-02-15T09:23:25.495Z,92.81
2023-02-15T09:26:12.146Z,92.76
2023-02-15T09:28:41.611Z,90.57
2023-02-15T09:31:13.930Z,91.46
2023-02-15T09:34:02.390Z,91.50
2023-02-15T09:36:41.178Z,89.76
2023-02-15T09:39:43.209Z,90.47
2023-02-15T09:42:47.183Z,90.81
2023-02-15T09:45:28.867Z,90.09
2023-02-15T09:48:20.488Z,89.16
2023-02-15T09:51:13.453Z,89.36
2023-02-15T09:54:04.510Z,89.21
2023-02-15T09:57:21.630Z,89.51
2023-02-15T10:00:08.548Z,88.74
2023-02-15T10:10:24.982Z,86.02
2023-02-15T10:16:42.107Z,85.15
2023-02-15T10:19:41.840Z,84.92
2023-02-15T10:26:01.238Z,86.18
2023-02-15T10:29:10.509Z,86.55
2023-02-15T10:32:40.893Z,86.70
2023-02-15T10:36:28.706Z,88.45
2023-02-15T10:39:39.424Z,89.53
2023-02-15T10:42:29.180Z,89.67
2023-02-15T10:45:17.525Z,89.57
2023-02-15T10:49:22.436Z,88.82
2023-02-15T10:52:52.745Z,88.68
2023-02-15T11:00:24.253Z,85.71
2023-02-15T11:07:25.425Z,82.96
2023-02-15T11:11:33.734Z,81.45
2023-02-15T11:15:36.968Z,81.58
2023-02-15T11:23:06.835Z,81.18
2023-02-15T11:25:38.345Z,80.55
2023-02-15T11:29:00.606Z,80.00
2023-02-15T11:32:31.237Z,78.88
2023-02-15T11:35:40.193Z,77.91
2023-02-15T11:38:23.112Z,76.66
2023-02-15T11:41:21.354Z,75.55
2023-02-15T11:43:57.590Z,75.68
2023-02-15T11:46:25.150Z,75.42
2023-02-15T11:48:53.599Z,75.84
2023-02-15T11:51:24.217Z,75.93
2023-02-15T11:53:52.599Z,76.58
2023-02-15T11:56:24.743Z,76.73
2023-02-15T11:58:57.891Z,77.35
2023-02-15T12:01:33.266Z,78.32
2023-02-15T12:04:11.383Z,77.74
2023-02-15T12:06:47.590Z,77.00
2023-02-15T12:09:30.797Z,75.97
2023-02-15T12:12:23.022Z,74.70
2023-02-15T12:15:08.786Z,74.67
2023-02-15T12:17:42.360Z,75.62
2023-02-15T12:20:31.885Z,75.06
2023-02-15T12:23:03.789Z,74.10
2023-02-15T12:25:38.362Z,72.17
2023-02-15T12:28:23.877Z,70.48
2023-02-15T12:30:54.333Z,70.42
2023-02-15T12:33:30.891Z,69.28
2023-02-15T12:36:10.411Z,70.71
2023-02-15T12:38:38.665Z,69.93
2023-02-15T12:41:25.206Z,69.52
2023-02-15T12:44:14.302Z,69.75
2023-02-15T12:46:59.008Z,68.43
2023-02-15T12:49:27.417Z,68.33
2023-02-15T12:51:57.781Z,66.66
2023-02-15T13:01:17.862Z,66.90
2023-02-15T13:03:59.108Z,70.42
2023-02-15T13:06:30.782Z,72.46
2023-02-15T13:09:14.006Z,76.52
2023-02-15T13:11:47.611Z,70.71
2023-02-15T13:14:21.887Z,68.09
2023-02-15T13:16:59.943Z,68.13
2023-02-15T13:19:45.006Z,67.67
2023-02-15T13:22:17.777Z,68.79
2023-02-15T13:24:59.113Z,68.89
2023-02-15T13:28:18.231Z,68.35
2023-02-15T13:30:49.872Z,68.42
2023-02-15T13:33:26.059Z,68.94
2023-02-15T13:36:35.964Z,68.09
2023-02-15T13:39:18.929Z,68.61
2023-02-15T13:42:02.160Z,69.21
2023-02-15T13:45:00.308Z,69.36
2023-02-15T13:47:46.293Z,71.48
2023-02-15T13:50:39.143Z,72.68
2023-02-15T13:53:36.502Z,72.19
2023-02-15T13:56:17.893Z,71.44
2023-02-15T13:59:11.003Z,72.20
2023-02-15T14:01:53.202Z,72.52
2023-02-15T14:05:16.091Z,71.07
2023-02-15T14:08:00.924Z,71.37
2023-02-15T14:10:46.404Z,71.38
2023-02-15T14:14:07.442Z,70.96
2023-02-15T14:17:05.769Z,71.17
2023-02-15T14:19:41.848Z,70.49
2023-02-15T14:22:25.431Z,71.51
2023-02-15T14:25:17.743Z,71.70
2023-02-15T14:28:00.137Z,71.91
2023-02-15T14:30:37.847Z,71.92
2023-02-15T14:33:26.362Z,71.42
2023-02-15T14:35:56.743Z,70.51
2023-02-15T14:38:48.064Z,70.32
2023-02-15T14:41:26.967Z,70.74
2023-02-15T14:44:09.153Z,70.62
2023-02-15T14:47:13.794Z,70.41
2023-02-15T14:49:49.241Z,70.73
2023-02-15T14:52:16.068Z,70.26
2023-02-15T14:55:01.516Z,71.08
2023-02-15T14:57:35.727Z,70.88
2023-02-15T15:00:47.230Z,70.50
2023-02-15T15:03:25.822Z,69.94
2023-02-15T15:06:02.240Z,70.29
2023-02-15T15:08:38.108Z,70.65
2023-02-15T15:11:44.193Z,70.75
2023-02-15T15:14:42.276Z,71.72
2023-02-15T15:17:22.601Z,70.83
2023-02-15T15:20:01.322Z,70.70
2023-02-15T15:22:32.696Z,71.71
2023-02-15T15:25:01.080Z,71.56
2023-02-15T15:27:50.516Z,71.63
2023-02-15T15:30:49.933Z,71.06
2023-02-15T15:33:55.291Z,71.58
2023-02-15T15:37:17.020Z,71.47
2023-02-15T15:40:36.994Z,71.30
2023-02-15T15:44:05.489Z,72.00
2023-02-15T15:47:01.590Z,71.79
2023-02-15T15:49:35.607Z,72.22
2023-02-15T15:52:11.567Z,72.57
2023-02-15T15:54:44.990Z,72.44
2023-02-15T15:57:25.247Z,73.13
2023-02-15T15:59:55.072Z,73.35
2023-02-15T16:02:22.529Z,73.33
2023-02-15T16:04:50.103Z,73.71
2023-02-15T16:07:27.267Z,73.30
2023-02-15T16:10:00.397Z,73.16
2023-02-15T16:12:32.953Z,73.85
2023-02-15T16:15:14.174Z,73.14
2023-02-15T16:17:45.916Z,73.96
2023-02-15T16:20:20.999Z,73.84
2023-02-15T16:22:53.551Z,74.23
2023-02-15T16:25:42.920Z,74.29
2023-02-15T16:28:13.776Z,74.84
2023-02-15T16:30:41.885Z,75.07
2023-02-15T16:33:11.695Z,74.83
2023-02-15T16:35:41.903Z,75.20
2023-02-15T16:38:11.708Z,75.07
2023-02-15T16:40:53.698Z,75.93
2023-02-15T16:43:29.565Z,76.20
2023-02-15T16:46:05.968Z,76.34
2023-02-15T16:48:41.189Z,76.62
2023-02-15T16:51:09.454Z,77.25
2023-02-15T16:53:38.151Z,77.64
2023-02-15T16:56:06.812Z,77.70
2023-02-15T16:58:44.003Z,78.43
2023-02-15T17:01:15.435Z,80.49
2023-02-15T17:03:43.640Z,81.57
2023-02-15T17:06:22.301Z,81.60
2023-02-15T17:08:50.470Z,81.38
2023-02-15T17:11:21.006Z,81.72
2023-02-15T17:14:19.807Z,82.32
2023-02-15T17:16:50.371Z,82.63
2023-02-15T17:19:26.599Z,82.93
2023-02-15T17:21:57.053Z,83.45
2023-02-15T17:24:36.493Z,83.56
2023-02-15T17:27:12.954Z,83.78
2023-02-15T17:29:47.580Z,84.43
2023-02-15T17:32:20.399Z,84.57
2023-02-15T17:35:07.822Z,86.49
2023-02-15T17:37:48.162Z,85.88
2023-02-15T17:40:24.533Z,85.71
2023-02-15T17:42:52.368Z,84.95
2023-02-15T17:45:23.299Z,85.38
2023-02-15T17:47:51.103Z,85.54
2023-02-15T17:50:23.317Z,85.62
2023-02-15T17:53:00.169Z,85.79
2023-02-15T17:55:27.615Z,86.49
2023-02-15T17:57:54.408Z,85.99
2023-02-15T18:00:22.806Z,86.43
2023-02-15T18:02:49.717Z,86.51
2023-02-15T18:05:17.319Z,86.82
2023-02-15T18:07:44.437Z,86.92
2023-02-15T18:10:15.496Z,86.98
2023-02-15T18:12:42.547Z,87.04
2023-02-15T18:15:12.330Z,87.33
2023-02-15T18:17:45.652Z,87.71
2023-02-15T18:20:20.111Z,87.96
2023-02-15T18:22:47.951Z,87.75
2023-02-15T18:25:24.283Z,87.49
2023-02-15T18:27:52.824Z,87.71
2023-02-15T18:30:24.574Z,87.21
2023-02-15T18:32:56.107Z,87.03
2023-02-15T18:35:28.364Z,87.02
2023-02-15T18:37:56.161Z,87.79
2023-02-15T18:40:27.974Z,87.99
2023-02-15T18:43:08.504Z,88.80
2023-02-15T18:45:57.988Z,88.58
2023-02-15T18:48:27.192Z,88.92
2023-02-15T18:51:15.493Z,89.10
2023-02-15T18:54:02.377Z,89.49
2023-02-15T19:04:01.781Z,89.25
2023-02-15T19:06:29.520Z,89.40
2023-02-15T19:08:56.449Z,89.37
2023-02-15T19:11:24.375Z,89.58
2023-02-15T19:13:52.612Z,89.00
2023-02-15T19:16:37.327Z,88.42
2023-02-15T19:19:08.825Z,88.75
2023-02-15T19:21:36.194Z,89.40
2023-02-15T19:24:08.327Z,89.75
2023-02-15T19:27:25.607Z,90.10
2023-02-15T19:29:54.661Z,90.46
2023-02-15T19:32:22.061Z,90.70
2023-02-15T19:34:51.579Z,90.88
2023-02-15T19:37:26.413Z,90.43
2023-02-15T19:39:53.881Z,90.58
2023-02-15T19:42:23.976Z,89.62
2023-02-15T19:44:53.914Z,89.99
2023-02-15T19:49:00.866Z,90.66
2023-02-15T19:51:46.712Z,90.73
2023-02-15T19:54:29.058Z,90.99
2023-02-15T19:56:57.398Z,91.41
2023-02-15T19:59:27.664Z,90.73
2023-02-15T20:01:55.611Z,90.03
2023-02-15T20:04:23.201Z,88.81
2023-02-15T20:06:55.568Z,87.52
2023-02-15T20:09:26.238Z,86.98
2023-02-15T20:11:53.497Z,86.02
2023-02-15T20:14:21.433Z,85.58
2023-02-15T20:16:53.069Z,85.97
2023-02-15T20:19:34.988Z,86.92
2023-02-15T20:22:03.622Z,87.84
2023-02-15T20:25:13.022Z,89.20
2023-02-15T20:27:40.492Z,90.38
2023-02-15T20:30:16.167Z,90.13
2023-02-15T20:32:43.209Z,90.56
2023-02-15T20:35:14.916Z,90.53
2023-02-15T20:37:45.479Z,90.06
2023-02-15T20:40:20.119Z,89.12
2023-02-15T20:42:47.246Z,88.29
2023-02-15T20:45:20.972Z,87.63
2023-02-15T20:47:49.966Z,87.02
2023-02-15T20:50:20.788Z,86.50
2023-02-15T20:52:53.444Z,86.11
2023-02-15T20:55:24.318Z,85.99
2023-02-15T20:57:52.079Z,86.20
2023-02-15T21:00:22.439Z,85.51
2023-02-15T21:02:51.789Z,85.21
2023-02-15T21:05:21.852Z,85.52
2023-02-15T21:07:52.607Z,85.01
2023-02-15T21:10:22.611Z,85.21
2023-02-15T21:12:53.964Z,87.08
2023-02-15T21:15:30.101Z,87.69
2023-02-15T21:18:00.576Z,87.92
2023-02-15T21:20:30.819Z,88.22
2023-02-15T21:23:04.693Z,88.24
2023-02-15T21:25:36.376Z,88.41
2023-02-15T21:28:04.670Z,87.66
2023-02-15T21:30:32.845Z,87.56
2023-02-15T21:33:00.105Z,86.88
2023-02-15T21:35:31.497Z,86.34
2023-02-15T21:37:59.837Z,86.14
2023-02-15T21:40:30.024Z,85.90
2023-02-15T21:42:59.631Z,86.21
2023-02-15T21:45:26.550Z,86.05
2023-02-15T21:48:00.936Z,86.30
2023-02-15T21:50:32.068Z,86.56
2023-02-15T21:53:00.814Z,86.52
2023-02-15T21:55:27.691Z,86.40
2023-02-15T21:57:54.973Z,86.27
2023-02-15T22:00:24.915Z,86.44
2023-02-15T22:02:55.685Z,86.26
2023-02-15T22:05:27.337Z,85.68
2023-02-15T22:07:54.195Z,84.76
2023-02-15T22:10:23.920Z,84.43
2023-02-15T22:13:05.291Z,83.96
2023-02-15T22:15:37.477Z,84.21
2023-02-15T22:18:05.796Z,84.09
2023-02-15T22:20:32.628Z,84.42
2023-02-15T22:23:44.710Z,84.64
2023-02-15T22:26:20.284Z,86.78
2023-02-15T22:28:47.228Z,87.98
2023-02-15T22:31:20.589Z,87.90
2023-02-15T22:33:47.536Z,87.67
2023-02-15T22:36:23.899Z,87.00
2023-02-15T22:38:50.729Z,86.59
2023-02-15T22:41:30.029Z,86.50
2023-02-15T22:43:58.061Z,87.68
2023-02-15T22:46:26.237Z,87.74
2023-02-15T22:48:53.701Z,88.15
2023-02-15T22:51:23.279Z,88.45
2023-02-15T22:53:50.916Z,87.86
2023-02-15T22:56:26.770Z,87.84
2023-02-15T22:59:00.431Z,87.37
2023-02-15T23:01:31.988Z,86.87
2023-02-15T23:04:00.598Z,86.17
2023-02-15T23:06:29.875Z,86.53
2023-02-15T23:08:56.691Z,86.43
2023-02-15T23:11:24.850Z,85.63
2023-02-15T23:13:51.717Z,85.59
2023-02-15T23:16:19.155Z,85.22
2023-02-15T23:18:47.499Z,84.86
2023-02-15T23:21:21.260Z,84.75
2023-02-15T23:23:52.362Z,84.05
2023-02-15T23:26:26.927Z,84.42
2023-02-15T23:28:56.788Z,84.27
2023-02-15T23:31:28.033Z,83.89
2023-02-15T23:33:56.168Z,83.96
2023-02-15T23:36:30.409Z,85.60
2023-02-15T23:39:00.757Z,87.79
2023-02-15T23:41:30.536Z,88.44
2023-02-15T23:44:02.773Z,90.30
2023-02-15T23:46:39.429Z,92.33
2023-02-15T23:49:10.759Z,91.93
2023-02-15T23:51:37.528Z,92.63
2023-02-15T23:54:04.934Z,92.08
2023-02-15T23:56:33.298Z,91.33
2023-02-15T23:59:01.533Z,90.94
